Key West, FL

6:06 PM EDT on June 02, 2015 (GMT -0400)
Big Coppitt Key Gulfside | | Change Station
CLOSE
Current Station
Personal Weather Station
Location: Key West, FL
Elevation: 31 ft
Nearby Weather Stations

Elev 31 ft 24.60 °N, 81.67 °W | Updated 11 minutes ago

Overcast
Overcast
75.9 °F
Feels Like 77 °F
N
0.0
Wind Variable Wind from North

Today
High -- | Low -- °F
--% Chance of Precip.
Yesterday
High -- | Low -- °F
Precip. -- in
6:37 AM 8:11 PM
Full, 100% visible
Pressure 29.95 in
Visibility 10.0 miles
Clouds Few 5000 ft
Mostly Cloudy 9000 ft
Mostly Cloudy 11000 ft
Heat Index 77 °F
Dew Point 70 °F
Humidity 83%
Rainfall 0.07 in
Snow Depth Not available.
UV 2 out of 12
Pollen .50 out of 12
Air Quality Not available.
Flu Activity Sporadic
METAR KEYW 022153Z 00000KT 10SM FEW050 BKN090 BKN110 25/22 A2995 RMK AO2 RAE52 SLP141 P0000 T02500217

More Conditions Fewer Conditions

Pressure 29.95 in
Visibility 10.0 miles
Clouds Few 5000 ft
Mostly Cloudy 9000 ft
Mostly Cloudy 11000 ft
Heat Index 77 °F
Dew Point 70 °F
Humidity 83%
Rainfall 0.07 in
Snow Depth Not available.
UV 2 out of 12
Pollen .50 out of 12
Air Quality Not available.
Flu Activity Sporadic
METAR KEYW 022153Z 00000KT 10SM FEW050 BKN090 BKN110 25/22 A2995 RMK AO2 RAE52 SLP141 P0000 T02500217

More Conditions Fewer Conditions

Nowcast | as of 4:23 PM EDT on June 2, 2015

Through 600 PM...a large area of light rain with embedded moderate to heavy showers...will affect the Florida Keys...as well as nearshore and offshore waters surrounding the island chain. The strongest showers will produce wind gusts near 25 knots and brief heavy rainfall...temporarily reducing the visibility to near two miles. Over land...the most likely area to see rainfall will be from Key West to Marathon. The majority of rain will be located over the Florida Straits...south of the Lower Keys.

×

10-Day Weather Forecast

×

Almanac

Astronomy

Jun. 02, 2015 Rise Set
Actual Time
Civil Twilight
Nautical Twilight
Astronomical Twilight
Moon
Length of Visible Light
Length of Day
Tomorrow will be .
, % of the Moon is Illuminated

Today's Extremes

State Highs State Lows

Community

WunderPhotos

Upload Photos

1,826,032 photos uploaded!

WunderBlogs® & News

Nearby

Air Quality

  Air Quality AQ Index Pollutant
Not available.

Snow Depth

Station Depth Elevation

Earthquake Activity

City Distance Mag. Time & Date
Minimum magnitude displayed is 2.5.

Coastal Water Temperatures

Place Temperature

Stations

Nearby Weather Stations

Station Location Temp. Windchill Dew Point Humidity Wind Precip. Elev Updated Type